createdAt,value
2022-08-05T00:01:35.562Z,22.29
2022-08-05T00:04:02.368Z,22.30
2022-08-05T00:06:33.226Z,22.24
2022-08-05T00:09:03.818Z,22.13
2022-08-05T00:11:34.986Z,22.14
2022-08-05T00:14:17.111Z,22.14
2022-08-05T00:16:52.836Z,22.22
2022-08-05T00:19:22.460Z,22.22
2022-08-05T00:21:49.571Z,22.13
2022-08-05T00:24:19.294Z,22.14
2022-08-05T00:26:53.154Z,22.19
2022-08-05T00:29:22.572Z,22.14
2022-08-05T00:32:10.910Z,22.03
2022-08-05T00:34:54.548Z,21.93
2022-08-05T00:37:27.581Z,21.76
2022-08-05T00:40:13.836Z,21.73
2022-08-05T00:42:48.247Z,21.68
2022-08-05T00:45:16.050Z,21.68
2022-08-05T00:47:57.062Z,21.64
2022-08-05T00:50:31.568Z,21.56
2022-08-05T00:52:58.177Z,21.65
2022-08-05T00:55:42.475Z,21.61
2022-08-05T00:58:13.351Z,21.54
2022-08-05T01:00:40.956Z,21.51
2022-08-05T01:03:22.185Z,21.44
2022-08-05T01:05:51.439Z,21.41
2022-08-05T01:08:40.762Z,21.43
2022-08-05T01:11:22.056Z,21.42
2022-08-05T01:14:01.189Z,21.33
2022-08-05T01:16:49.303Z,21.31
2022-08-05T01:19:18.805Z,21.41
2022-08-05T01:22:15.606Z,21.44
2022-08-05T01:24:50.622Z,21.56
2022-08-05T01:27:58.344Z,21.57
2022-08-05T01:30:35.156Z,21.56
2022-08-05T01:33:08.291Z,21.57
2022-08-05T01:35:50.809Z,21.58
2022-08-05T01:38:26.871Z,21.55
2022-08-05T01:40:58.876Z,21.55
2022-08-05T01:43:28.013Z,21.53
2022-08-05T01:45:57.695Z,21.50
2022-08-05T01:48:27.610Z,21.45
2022-08-05T01:50:56.749Z,21.41
2022-08-05T01:53:54.640Z,21.37
2022-08-05T01:58:12.973Z,21.44
2022-08-05T01:59:06.678Z,21.38
2022-08-05T02:01:40.230Z,21.35
2022-08-05T02:04:10.345Z,21.32
2022-08-05T02:06:39.017Z,21.31
2022-08-05T02:09:07.103Z,21.30
2022-08-05T02:11:48.064Z,21.30
2022-08-05T02:14:29.385Z,21.27
2022-08-05T02:17:07.328Z,21.20
2022-08-05T02:19:47.446Z,21.04
2022-08-05T02:22:29.354Z,21.10
2022-08-05T02:25:22.507Z,21.03
2022-08-05T02:27:59.461Z,21.08
2022-08-05T02:30:38.510Z,21.08
2022-08-05T02:33:24.356Z,21.04
2022-08-05T02:36:05.128Z,21.05
2022-08-05T02:38:35.488Z,21.08
2022-08-05T02:41:14.717Z,21.14
2022-08-05T02:44:02.533Z,21.17
2022-08-05T02:46:34.405Z,21.17
2022-08-05T02:49:01.467Z,21.25
2022-08-05T02:52:02.985Z,21.26
2022-08-05T02:54:36.532Z,21.28
2022-08-05T02:57:10.096Z,21.27
2022-08-05T02:59:56.015Z,21.24
2022-08-05T03:02:28.474Z,21.27
2022-08-05T03:04:57.440Z,21.27
2022-08-05T03:08:00.409Z,21.28
2022-08-05T03:10:21.760Z,21.28
2022-08-05T03:12:53.382Z,21.27
2022-08-05T03:15:23.414Z,21.25
2022-08-05T03:17:54.159Z,21.21
2022-08-05T03:20:23.647Z,21.22
2022-08-05T03:22:51.419Z,21.22
2022-08-05T03:25:32.402Z,21.20
2022-08-05T03:28:02.962Z,21.21
2022-08-05T03:30:33.831Z,21.21
2022-08-05T03:33:01.979Z,21.25
2022-08-05T03:35:33.738Z,21.19
2022-08-05T03:38:01.508Z,21.17
2022-08-05T03:40:31.878Z,21.25
2022-08-05T03:43:01.508Z,21.18
2022-08-05T03:45:58.339Z,21.14
2022-08-05T03:48:27.141Z,21.10
2022-08-05T03:52:37.822Z,21.02
2022-08-05T03:55:51.935Z,20.97
2022-08-05T03:57:16.541Z,20.93
2022-08-05T03:59:54.958Z,20.93
2022-08-05T04:02:38.468Z,20.87
2022-08-05T04:05:09.734Z,20.70
2022-08-05T04:07:53.532Z,21.21
2022-08-05T04:10:27.695Z,21.47
2022-08-05T04:12:56.337Z,21.83
2022-08-05T04:15:27.758Z,21.58
2022-08-05T04:18:02.834Z,21.57
2022-08-05T04:20:32.362Z,21.64
2022-08-05T04:23:00.316Z,21.87
2022-08-05T04:25:56.856Z,21.91
2022-08-05T04:28:17.202Z,21.83
2022-08-05T04:30:44.696Z,21.67
2022-08-05T04:33:11.724Z,21.50
2022-08-05T04:36:15.724Z,21.28
2022-08-05T04:38:39.938Z,21.19
2022-08-05T04:41:09.558Z,21.12
2022-08-05T04:43:46.495Z,21.21
2022-08-05T04:46:27.930Z,21.29
2022-08-05T04:48:57.985Z,21.44
2022-08-05T04:51:25.582Z,21.66
2022-08-05T04:54:01.339Z,21.76
2022-08-05T04:56:35.162Z,21.80
2022-08-05T04:59:22.273Z,21.85
2022-08-05T05:02:35.388Z,21.87
2022-08-05T05:04:47.857Z,22.07
2022-08-05T05:07:17.681Z,22.40
2022-08-05T05:09:46.382Z,22.24
2022-08-05T05:12:13.034Z,22.28
2022-08-05T05:14:49.503Z,22.41
2022-08-05T05:17:23.513Z,22.31
2022-08-05T05:19:53.832Z,22.24
2022-08-05T05:22:23.613Z,22.06
2022-08-05T05:25:00.095Z,21.90
2022-08-05T05:27:44.793Z,21.87
2022-08-05T05:30:29.522Z,22.04
2022-08-05T05:33:00.972Z,22.25
2022-08-05T05:35:34.437Z,22.46
2022-08-05T05:38:05.648Z,22.47
2022-08-05T05:40:35.564Z,22.43
2022-08-05T05:43:03.220Z,22.57
2022-08-05T05:45:29.935Z,22.79
2022-08-05T05:48:07.027Z,23.02
2022-08-05T05:50:43.846Z,22.99
2022-08-05T05:53:21.196Z,23.11
2022-08-05T05:55:52.061Z,22.98
2022-08-05T05:58:30.134Z,23.08
2022-08-05T06:01:13.078Z,23.21
2022-08-05T06:04:00.613Z,23.43
2022-08-05T06:06:30.861Z,23.69
2022-08-05T06:08:58.230Z,23.70
2022-08-05T06:11:29.059Z,23.90
2022-08-05T06:13:56.754Z,23.89
2022-08-05T06:16:29.831Z,23.94
2022-08-05T06:19:05.626Z,24.13
2022-08-05T06:21:37.106Z,24.28
2022-08-05T06:24:11.194Z,24.42
2022-08-05T06:26:51.334Z,24.68
2022-08-05T06:29:25.286Z,24.84
2022-08-05T06:32:26.186Z,24.96
2022-08-05T06:34:57.803Z,25.06
2022-08-05T06:37:56.252Z,25.09
2022-08-05T06:40:13.043Z,25.24
2022-08-05T06:42:40.583Z,25.29
2022-08-05T06:45:09.273Z,25.27
2022-08-05T06:48:37.220Z,25.39
2022-08-05T06:50:23.711Z,25.58
2022-08-05T06:52:58.572Z,25.69
2022-08-05T06:55:30.320Z,25.87
2022-08-05T06:58:29.705Z,26.08
2022-08-05T07:00:51.984Z,26.18
2022-08-05T07:03:20.037Z,26.25
2022-08-05T07:05:55.254Z,26.32
2022-08-05T07:08:23.794Z,26.57
2022-08-05T07:10:53.403Z,26.65
2022-08-05T07:13:56.623Z,26.81
2022-08-05T07:16:12.090Z,26.87
2022-08-05T07:18:57.357Z,26.70
2022-08-05T07:21:26.137Z,26.80
2022-08-05T07:23:52.637Z,26.65
2022-08-05T07:26:22.763Z,26.72
2022-08-05T07:28:51.871Z,26.99
2022-08-05T07:31:20.051Z,27.01
2022-08-05T07:34:08.314Z,27.08
2022-08-05T07:36:36.499Z,26.99
2022-08-05T07:39:08.038Z,27.16
2022-08-05T07:42:08.001Z,26.87
2022-08-05T07:44:37.741Z,27.13
2022-08-05T07:47:06.197Z,27.26
2022-08-05T07:49:34.463Z,27.42
2022-08-05T07:52:10.263Z,27.75
2022-08-05T07:54:38.650Z,27.61
2022-08-05T07:57:22.540Z,27.51
2022-08-05T07:59:55.736Z,27.16
2022-08-05T08:02:31.140Z,27.14
2022-08-05T08:05:16.554Z,27.25
2022-08-05T08:07:59.276Z,27.68
2022-08-05T08:10:28.055Z,27.75
2022-08-05T08:12:58.591Z,27.74
2022-08-05T08:15:37.063Z,27.74
2022-08-05T08:18:14.360Z,27.57
2022-08-05T08:20:43.195Z,27.25
2022-08-05T08:24:03.400Z,27.49
2022-08-05T08:25:58.991Z,27.45
2022-08-05T08:28:36.730Z,27.47
2022-08-05T08:31:09.462Z,28.05
2022-08-05T08:33:42.053Z,28.05
2022-08-05T08:36:37.490Z,28.21
2022-08-05T08:38:57.788Z,28.53
2022-08-05T08:41:50.646Z,28.17
2022-08-05T08:45:21.422Z,28.03
2022-08-05T08:47:46.913Z,28.09
2022-08-05T08:50:05.964Z,28.37
2022-08-05T08:52:57.062Z,28.80
2022-08-05T08:56:02.007Z,28.84
2022-08-05T08:58:13.173Z,28.79
2022-08-05T09:00:41.010Z,28.77
2022-08-05T09:03:10.283Z,29.09
2022-08-05T09:05:39.038Z,29.20
2022-08-05T09:08:26.567Z,29.33
2022-08-05T09:10:54.036Z,29.16
2022-08-05T09:13:20.664Z,29.37
2022-08-05T09:15:50.964Z,29.28
2022-08-05T09:18:17.636Z,29.59
2022-08-05T09:20:47.281Z,29.47
2022-08-05T09:23:18.832Z,28.87
2022-08-05T09:26:00.818Z,28.72
2022-08-05T09:28:33.567Z,28.44
2022-08-05T09:31:03.700Z,28.16
2022-08-05T09:33:58.020Z,27.86
2022-08-05T09:36:37.736Z,28.05
2022-08-05T09:39:18.562Z,28.15
2022-08-05T09:42:03.424Z,28.00
2022-08-05T09:44:36.669Z,27.98
2022-08-05T09:47:15.947Z,28.50
2022-08-05T09:50:00.823Z,29.02
2022-08-05T09:52:46.884Z,29.10
2022-08-05T09:55:57.335Z,29.86
2022-08-05T09:58:15.545Z,29.79
2022-08-05T10:00:58.179Z,29.40
2022-08-05T10:03:56.860Z,29.90
2022-08-05T10:06:19.970Z,30.21
2022-08-05T10:08:50.280Z,30.33
2022-08-05T10:11:20.875Z,30.13
2022-08-05T10:13:54.751Z,30.62
2022-08-05T10:16:30.499Z,30.62
2022-08-05T10:19:00.312Z,30.28
2022-08-05T10:21:27.531Z,30.37
2022-08-05T10:24:05.176Z,30.05
2022-08-05T10:26:36.641Z,30.46
2022-08-05T10:29:20.353Z,30.89
2022-08-05T10:32:52.444Z,31.11
2022-08-05T10:34:40.881Z,31.51
2022-08-05T10:37:08.197Z,32.26
2022-08-05T10:40:03.175Z,32.20
2022-08-05T10:42:32.577Z,32.02
2022-08-05T10:45:21.510Z,32.23
2022-08-05T10:48:31.809Z,31.36
2022-08-05T10:51:21.862Z,30.85
2022-08-05T10:53:58.413Z,31.33
2022-08-05T10:56:44.996Z,30.65
2022-08-05T11:00:02.989Z,31.46
2022-08-05T11:02:14.700Z,30.78
2022-08-05T11:04:59.521Z,31.39
2022-08-05T11:07:32.862Z,31.46
2022-08-05T11:10:23.137Z,32.00
2022-08-05T11:12:55.292Z,31.84
2022-08-05T11:16:01.278Z,32.56
2022-08-05T11:18:32.513Z,32.46
2022-08-05T11:21:00.990Z,32.45
2022-08-05T11:24:04.560Z,32.27
2022-08-05T11:26:37.916Z,32.54
2022-08-05T11:29:12.936Z,31.83
2022-08-05T11:31:58.329Z,31.88
2022-08-05T11:34:51.709Z,31.88
2022-08-05T11:38:29.219Z,31.90
2022-08-05T11:41:34.661Z,31.82
2022-08-05T11:44:07.355Z,32.32
2022-08-05T11:47:09.361Z,32.23
2022-08-05T11:49:28.824Z,32.46
2022-08-05T11:52:00.523Z,32.27
2022-08-05T11:54:33.471Z,32.57
2022-08-05T11:57:07.639Z,32.13
2022-08-05T11:59:49.569Z,32.20
2022-08-05T12:02:29.855Z,32.46
2022-08-05T12:05:07.558Z,32.34
2022-08-05T12:08:07.429Z,32.39
2022-08-05T12:10:39.076Z,31.82
2022-08-05T12:13:15.501Z,31.90
2022-08-05T12:15:45.125Z,32.31
2022-08-05T12:18:20.816Z,32.24
2022-08-05T12:20:51.221Z,32.58
2022-08-05T12:23:20.449Z,32.66
2022-08-05T12:25:51.294Z,33.30
2022-08-05T12:28:39.266Z,33.14
2022-08-05T12:31:06.188Z,32.83
2022-08-05T12:33:36.304Z,32.24
2022-08-05T12:36:08.385Z,32.29
2022-08-05T12:38:41.392Z,32.73
2022-08-05T12:41:16.175Z,32.98
2022-08-05T12:44:00.846Z,32.88
2022-08-05T12:46:32.150Z,33.07
2022-08-05T12:49:13.008Z,32.79
2022-08-05T12:52:11.051Z,32.27
2022-08-05T12:54:47.577Z,31.93
2022-08-05T12:57:17.697Z,32.44
2022-08-05T13:01:57.739Z,32.63
2022-08-05T13:02:40.195Z,32.82
2022-08-05T13:05:08.710Z,32.97
2022-08-05T13:07:59.372Z,33.13
2022-08-05T13:10:28.640Z,33.11
2022-08-05T13:12:58.499Z,33.26
2022-08-05T13:15:41.510Z,33.10
2022-08-05T13:18:19.802Z,32.30
2022-08-05T13:20:50.111Z,32.06
2022-08-05T13:23:22.142Z,32.67
2022-08-05T13:25:52.573Z,32.65
2022-08-05T13:28:27.304Z,32.46
2022-08-05T13:30:53.973Z,32.54
2022-08-05T13:34:21.751Z,33.07
2022-08-05T13:36:09.270Z,32.55
2022-08-05T13:38:41.998Z,32.68
2022-08-05T13:41:09.727Z,32.71
2022-08-05T13:43:44.218Z,33.08
2022-08-05T13:46:43.873Z,32.65
2022-08-05T13:49:11.795Z,32.54
2022-08-05T13:51:41.564Z,32.95
2022-08-05T13:54:15.050Z,32.81
2022-08-05T13:56:44.992Z,32.86
2022-08-05T13:59:23.965Z,33.41
2022-08-05T14:01:57.633Z,33.29
2022-08-05T14:04:38.079Z,33.05
2022-08-05T14:07:25.161Z,33.34
2022-08-05T14:09:51.877Z,33.32
2022-08-05T14:12:32.283Z,33.82
2022-08-05T14:15:00.146Z,33.30
2022-08-05T14:17:28.221Z,33.18
2022-08-05T14:20:00.955Z,33.04
2022-08-05T14:22:34.549Z,32.49
2022-08-05T14:25:06.413Z,32.41
2022-08-05T14:27:47.544Z,32.43
2022-08-05T14:30:20.236Z,32.38
2022-08-05T14:32:48.105Z,32.36
2022-08-05T14:35:14.898Z,32.05
2022-08-05T14:37:48.315Z,31.75
2022-08-05T14:40:17.558Z,31.63
2022-08-05T14:42:44.423Z,31.66
2022-08-05T14:45:11.249Z,31.44
2022-08-05T14:48:02.972Z,31.34
2022-08-05T14:50:25.426Z,31.21
2022-08-05T14:52:56.786Z,31.12
2022-08-05T14:55:28.738Z,31.12
2022-08-05T14:58:14.040Z,30.99
2022-08-05T15:00:59.570Z,30.92
2022-08-05T15:03:38.873Z,30.66
2022-08-05T15:06:15.083Z,30.70
2022-08-05T15:08:59.553Z,30.68
2022-08-05T15:11:50.842Z,30.76
2022-08-05T15:14:33.631Z,30.68
2022-08-05T15:17:45.058Z,30.68
2022-08-05T15:19:55.114Z,30.63
2022-08-05T15:22:21.913Z,30.48
2022-08-05T15:24:54.229Z,30.35
2022-08-05T15:27:20.810Z,29.99
2022-08-05T15:29:49.616Z,30.02
2022-08-05T15:32:16.634Z,29.90
2022-08-05T15:34:43.348Z,30.02
2022-08-05T15:37:15.639Z,30.01
2022-08-05T15:40:58.794Z,29.75
2022-08-05T15:42:55.249Z,29.86
2022-08-05T15:45:23.165Z,29.92
2022-08-05T15:48:05.411Z,29.74
2022-08-05T15:50:33.512Z,29.39
2022-08-05T15:53:05.682Z,29.42
2022-08-05T15:56:02.026Z,29.43
2022-08-05T15:58:19.770Z,28.96
2022-08-05T16:01:04.362Z,28.62
2022-08-05T16:03:36.776Z,28.35
2022-08-05T16:06:08.780Z,28.48
2022-08-05T16:08:39.910Z,28.59
2022-08-05T16:11:09.289Z,28.44
2022-08-05T16:13:36.831Z,28.62
2022-08-05T16:16:06.332Z,28.41
2022-08-05T16:18:33.630Z,28.32
2022-08-05T16:21:01.218Z,28.41
2022-08-05T16:23:53.352Z,28.23
2022-08-05T16:26:17.889Z,28.25
2022-08-05T16:28:44.673Z,28.42
2022-08-05T16:31:11.183Z,28.59
2022-08-05T16:33:41.593Z,28.18
2022-08-05T16:36:08.902Z,28.02
2022-08-05T16:38:35.723Z,27.89
2022-08-05T16:42:12.259Z,28.11
2022-08-05T16:43:56.327Z,28.15
2022-08-05T16:46:24.903Z,27.91
2022-08-05T16:48:52.266Z,27.95
2022-08-05T16:51:19.708Z,28.21
2022-08-05T16:54:05.862Z,28.35
2022-08-05T16:56:36.700Z,28.13
2022-08-05T16:59:08.773Z,27.73
2022-08-05T17:01:53.576Z,27.75
2022-08-05T17:04:23.663Z,27.64
2022-08-05T17:06:53.103Z,27.59
2022-08-05T17:09:20.563Z,27.52
2022-08-05T17:11:48.646Z,27.54
2022-08-05T17:14:34.209Z,27.92
2022-08-05T17:17:04.280Z,28.06
2022-08-05T17:19:32.290Z,27.81
2022-08-05T17:22:02.206Z,27.79
2022-08-05T17:24:38.716Z,27.38
2022-08-05T17:27:09.133Z,27.23
2022-08-05T17:29:41.075Z,27.22
2022-08-05T17:32:17.226Z,27.32
2022-08-05T17:34:47.561Z,27.16
2022-08-05T17:37:40.803Z,26.94
2022-08-05T17:40:02.808Z,27.04
2022-08-05T17:42:32.799Z,27.24
2022-08-05T17:45:00.427Z,27.42
2022-08-05T17:47:47.003Z,26.86
2022-08-05T17:50:27.848Z,26.72
2022-08-05T17:52:56.369Z,26.45
2022-08-05T17:55:27.372Z,26.36
2022-08-05T17:58:01.672Z,26.50
2022-08-05T18:00:28.592Z,26.60
2022-08-05T18:02:55.997Z,26.58
2022-08-05T18:05:22.663Z,26.57
2022-08-05T18:07:49.638Z,26.56
2022-08-05T18:10:21.065Z,26.47
2022-08-05T18:12:49.157Z,26.38
2022-08-05T18:15:15.854Z,26.25
2022-08-05T18:17:58.712Z,26.22
2022-08-05T18:20:29.197Z,26.23
2022-08-05T18:23:00.713Z,26.12
2022-08-05T18:25:39.504Z,26.08
2022-08-05T18:28:11.450Z,25.95
2022-08-05T18:30:59.024Z,25.92
2022-08-05T18:33:37.590Z,25.81
2022-08-05T18:36:15.209Z,25.66
2022-08-05T18:38:43.681Z,25.69
2022-08-05T18:41:55.343Z,25.74
2022-08-05T18:43:57.204Z,25.76
2022-08-05T18:46:33.236Z,25.66
2022-08-05T18:49:00.933Z,25.61
2022-08-05T18:52:05.982Z,25.49
2022-08-05T18:54:14.179Z,25.31
2022-08-05T18:56:40.834Z,25.29
2022-08-05T18:59:42.071Z,25.13
2022-08-05T19:01:58.220Z,25.11
2022-08-05T19:04:27.924Z,25.06
2022-08-05T19:06:54.647Z,24.88
2022-08-05T19:09:21.290Z,24.85
2022-08-05T19:11:59.593Z,24.81
2022-08-05T19:14:52.388Z,24.65
2022-08-05T19:17:16.689Z,24.75
2022-08-05T19:19:46.814Z,24.70
2022-08-05T19:22:17.215Z,24.66
2022-08-05T19:24:56.104Z,24.58
2022-08-05T19:27:27.882Z,24.49
2022-08-05T19:29:57.682Z,24.45
2022-08-05T19:32:26.100Z,24.41
2022-08-05T19:34:55.145Z,24.33
2022-08-05T19:37:30.039Z,24.28
2022-08-05T19:40:10.767Z,24.26
2022-08-05T19:42:38.912Z,24.17
2022-08-05T19:45:06.524Z,24.16
2022-08-05T19:47:37.662Z,24.06
2022-08-05T19:50:07.635Z,23.96
2022-08-05T19:52:37.064Z,23.84
2022-08-05T19:55:07.154Z,23.74
2022-08-05T19:58:10.409Z,23.61
2022-08-05T20:00:37.932Z,23.55
2022-08-05T20:03:09.039Z,23.48
2022-08-05T20:05:50.113Z,23.43
2022-08-05T20:08:18.787Z,23.37
2022-08-05T20:10:49.585Z,23.35
2022-08-05T20:13:17.352Z,23.32
2022-08-05T20:15:52.253Z,23.37
2022-08-05T20:18:33.093Z,23.33
2022-08-05T20:21:04.718Z,23.33
2022-08-05T20:23:40.176Z,23.31
2022-08-05T20:26:19.718Z,23.34
2022-08-05T20:28:49.630Z,23.34
2022-08-05T20:31:17.035Z,23.32
2022-08-05T20:33:44.995Z,23.35
2022-08-05T20:36:12.243Z,23.23
2022-08-05T20:38:53.377Z,23.23
2022-08-05T20:41:24.244Z,23.21
2022-08-05T20:43:59.756Z,23.19
2022-08-05T20:46:30.655Z,23.17
2022-08-05T20:48:58.378Z,23.18
2022-08-05T20:51:25.266Z,23.09
2022-08-05T20:53:56.991Z,22.95
2022-08-05T20:56:31.835Z,22.49
2022-08-05T20:59:14.188Z,22.37
2022-08-05T21:01:46.501Z,22.11
2022-08-05T21:04:13.816Z,22.07
2022-08-05T21:06:45.295Z,21.96
2022-08-05T21:09:14.785Z,21.67
2022-08-05T21:12:06.870Z,21.67
2022-08-05T21:14:34.618Z,21.49
2022-08-05T21:17:05.127Z,21.44
2022-08-05T21:19:46.916Z,21.42
2022-08-05T21:22:18.639Z,21.36
2022-08-05T21:24:51.505Z,21.40
2022-08-05T21:27:20.463Z,21.51
2022-08-05T21:29:51.201Z,21.52
2022-08-05T21:32:20.060Z,21.45
2022-08-05T21:34:55.888Z,21.43
2022-08-05T21:37:35.068Z,21.32
2022-08-05T21:40:13.977Z,21.29
2022-08-05T21:42:44.073Z,21.34
2022-08-05T21:45:11.516Z,21.28
2022-08-05T21:47:56.254Z,21.15
2022-08-05T21:50:24.342Z,21.03
2022-08-05T21:52:51.030Z,21.02
2022-08-05T21:55:17.575Z,20.97
2022-08-05T21:58:04.788Z,20.86
2022-08-05T22:00:31.324Z,20.82
2022-08-05T22:02:57.838Z,20.86
2022-08-05T22:05:27.239Z,20.88
2022-08-05T22:07:59.567Z,20.87
2022-08-05T22:10:29.469Z,20.84
2022-08-05T22:12:59.083Z,20.82
2022-08-05T22:16:04.734Z,20.64
2022-08-05T22:18:25.648Z,20.58
2022-08-05T22:20:52.803Z,20.53
2022-08-05T22:23:21.410Z,20.51
2022-08-05T22:26:09.663Z,20.61
2022-08-05T22:28:38.748Z,20.51
2022-08-05T22:31:05.962Z,20.53
2022-08-05T22:33:57.662Z,20.52
2022-08-05T22:36:23.984Z,20.51
2022-08-05T22:38:51.475Z,20.51
2022-08-05T22:41:26.468Z,20.48
2022-08-05T22:44:08.327Z,20.55
2022-08-05T22:46:39.417Z,20.64
2022-08-05T22:49:23.358Z,20.58
2022-08-05T22:52:05.693Z,20.55
2022-08-05T22:54:38.813Z,20.61
2022-08-05T22:57:07.452Z,20.48
2022-08-05T22:59:46.294Z,20.34
2022-08-05T23:02:18.270Z,20.32
2022-08-05T23:04:51.880Z,20.26
2022-08-05T23:07:19.293Z,20.28
2022-08-05T23:09:57.067Z,20.28
2022-08-05T23:12:28.498Z,20.21
2022-08-05T23:14:56.881Z,20.28
2022-08-05T23:17:24.264Z,20.15
2022-08-05T23:20:00.946Z,20.15
2022-08-05T23:22:29.482Z,20.10
2022-08-05T23:24:57.476Z,20.17
2022-08-05T23:27:31.230Z,20.09
2022-08-05T23:29:58.911Z,20.04
2022-08-05T23:32:26.947Z,20.07
2022-08-05T23:34:54.031Z,20.07
2022-08-05T23:37:20.839Z,20.14
2022-08-05T23:39:53.920Z,20.10
2022-08-05T23:42:23.431Z,20.04
2022-08-05T23:44:54.503Z,19.92
2022-08-05T23:47:21.163Z,19.87
2022-08-05T23:49:52.024Z,19.84
2022-08-05T23:52:25.288Z,19.88
2022-08-05T23:54:57.409Z,19.84
2022-08-05T23:57:28.354Z,19.76
